createdAt,value
2018-08-19T00:00:37.929Z,90.50
2018-08-19T00:03:04.245Z,90.50
2018-08-19T00:05:31.293Z,91.30
2018-08-19T00:07:57.547Z,91.30
2018-08-19T00:10:23.869Z,91.40
2018-08-19T00:12:50.872Z,91.70
2018-08-19T00:15:17.182Z,91.70
2018-08-19T00:17:43.450Z,92.20
2018-08-19T00:20:09.752Z,92.40
2018-08-19T00:22:36.014Z,92.80
2018-08-19T00:25:02.325Z,92.80
2018-08-19T00:27:28.572Z,92.90
2018-08-19T00:29:54.844Z,93.30
2018-08-19T00:32:21.087Z,94.00
2018-08-19T00:34:47.386Z,94.70
2018-08-19T00:37:14.382Z,95.40
2018-08-19T00:39:40.661Z,95.30
2018-08-19T00:42:07.709Z,95.90
2018-08-19T00:44:34.728Z,96.00
2018-08-19T00:47:00.999Z,96.00
2018-08-19T00:49:28.044Z,96.40
2018-08-19T00:51:55.074Z,96.70
2018-08-19T00:54:21.422Z,96.70
2018-08-19T00:56:48.445Z,96.80
2018-08-19T00:59:14.740Z,96.80
2018-08-19T01:01:41.005Z,97.00
2018-08-19T01:04:07.294Z,96.90
2018-08-19T01:06:33.582Z,97.10
2018-08-19T01:09:00.580Z,97.10
2018-08-19T01:11:26.901Z,97.10
2018-08-19T01:13:53.186Z,97.50
2018-08-19T01:16:19.493Z,97.00
2018-08-19T01:18:45.793Z,97.20
2018-08-19T01:21:12.113Z,97.30
2018-08-19T01:23:38.360Z,97.50
2018-08-19T01:26:04.684Z,97.40
2018-08-19T01:28:30.967Z,97.80
2018-08-19T01:30:57.257Z,98.20
2018-08-19T01:33:23.580Z,98.40
2018-08-19T01:35:49.883Z,98.80
2018-08-19T01:38:16.873Z,99.40
2018-08-19T01:40:43.187Z,99.40
2018-08-19T01:43:09.432Z,99.70
2018-08-19T01:45:35.717Z,99.50
2018-08-19T01:48:02.730Z,99.50
2018-08-19T01:50:28.996Z,99.50
2018-08-19T01:52:55.990Z,99.60
2018-08-19T01:55:22.277Z,99.60
2018-08-19T01:57:49.257Z,99.70
2018-08-19T02:00:15.554Z,99.70
2018-08-19T02:02:41.841Z,99.40
2018-08-19T02:05:08.135Z,99.80
2018-08-19T02:07:34.394Z,99.70
2018-08-19T02:10:00.709Z,99.60
2018-08-19T02:12:27.025Z,99.40
2018-08-19T02:14:53.314Z,99.60
2018-08-19T02:17:20.347Z,99.90
2018-08-19T02:19:46.615Z,99.90
2018-08-19T02:22:13.657Z,99.90
2018-08-19T02:24:40.658Z,99.90
2018-08-19T02:27:06.981Z,99.90
2018-08-19T02:29:33.250Z,99.90
2018-08-19T02:31:59.563Z,99.90
2018-08-19T02:34:27.545Z,99.90
2018-08-19T02:36:53.837Z,99.90
2018-08-19T02:39:20.106Z,99.90
2018-08-19T02:41:46.448Z,99.90
2018-08-19T02:44:12.686Z,99.90
2018-08-19T02:46:39.019Z,99.90
2018-08-19T02:49:05.277Z,99.90
2018-08-19T02:51:32.314Z,99.90
2018-08-19T02:53:58.552Z,99.90
2018-08-19T02:56:25.595Z,99.90
2018-08-19T02:58:52.593Z,99.90
2018-08-19T03:01:18.897Z,99.90
2018-08-19T03:03:55.199Z,99.90
2018-08-19T03:06:21.500Z,99.90
2018-08-19T03:08:47.770Z,99.90
2018-08-19T03:11:14.093Z,99.90
2018-08-19T03:13:40.376Z,99.90
2018-08-19T03:16:06.660Z,99.90
2018-08-19T03:18:32.903Z,99.90
2018-08-19T03:20:59.194Z,99.90
2018-08-19T03:23:25.430Z,99.90
2018-08-19T03:25:51.737Z,99.90
2018-08-19T03:28:18.725Z,99.90
2018-08-19T03:30:44.998Z,99.90
2018-08-19T03:33:11.290Z,99.90
2018-08-19T03:35:37.530Z,99.90
2018-08-19T03:38:03.934Z,99.90
2018-08-19T03:40:30.150Z,99.90
2018-08-19T03:42:56.421Z,99.90
2018-08-19T03:45:22.660Z,99.90
2018-08-19T03:47:48.945Z,99.90
2018-08-19T03:50:15.249Z,99.90
2018-08-19T03:52:42.314Z,99.90
2018-08-19T03:55:08.632Z,99.90
2018-08-19T03:57:35.665Z,99.90
2018-08-19T04:00:01.932Z,99.90
2018-08-19T04:02:28.229Z,99.90
2018-08-19T04:04:54.480Z,99.90
2018-08-19T04:07:20.753Z,99.90
2018-08-19T04:09:46.989Z,99.90
2018-08-19T04:12:13.330Z,99.90
2018-08-19T04:14:39.582Z,99.90
2018-08-19T04:17:05.873Z,99.90
2018-08-19T04:19:32.137Z,99.90
2018-08-19T04:21:58.432Z,99.90
2018-08-19T04:24:24.698Z,99.90
2018-08-19T04:26:52.655Z,99.90
2018-08-19T04:29:19.717Z,99.90
2018-08-19T04:31:45.992Z,99.90
2018-08-19T04:34:12.246Z,99.90
2018-08-19T04:36:38.536Z,99.90
2018-08-19T04:39:05.571Z,99.90
2018-08-19T04:41:31.834Z,99.90
2018-08-19T04:43:58.155Z,99.90
2018-08-19T04:46:24.409Z,99.90
2018-08-19T04:49:34.049Z,99.90
2018-08-19T04:52:01.185Z,99.90
2018-08-19T04:54:28.220Z,99.90
2018-08-19T04:56:54.488Z,99.90
2018-08-19T04:59:20.782Z,99.90
2018-08-19T05:01:47.027Z,99.90
2018-08-19T05:04:14.035Z,99.90
2018-08-19T05:06:40.273Z,99.90
2018-08-19T05:09:06.591Z,99.90
2018-08-19T05:11:32.832Z,99.90
2018-08-19T05:13:59.161Z,99.90
2018-08-19T05:16:25.428Z,99.90
2018-08-19T05:18:52.483Z,99.90
2018-08-19T05:21:19.482Z,99.90
2018-08-19T05:23:45.802Z,99.90
2018-08-19T05:26:12.065Z,99.90
2018-08-19T05:28:38.346Z,99.90
2018-08-19T05:31:04.642Z,99.90
2018-08-19T05:33:31.620Z,99.90
2018-08-19T05:35:57.912Z,99.90
2018-08-19T05:38:24.166Z,99.90
2018-08-19T05:40:50.462Z,99.90
2018-08-19T05:43:16.704Z,99.90
2018-08-19T05:45:42.981Z,99.90
2018-08-19T05:48:09.353Z,99.90
2018-08-19T05:50:35.668Z,99.90
2018-08-19T05:53:01.977Z,99.90
2018-08-19T05:55:28.261Z,99.90
2018-08-19T05:57:54.549Z,99.90
2018-08-19T06:00:20.842Z,99.90
2018-08-19T06:02:47.877Z,99.90
2018-08-19T06:05:14.145Z,99.90
2018-08-19T06:07:40.543Z,99.90
2018-08-19T06:10:06.733Z,99.90
2018-08-19T06:12:33.065Z,99.90
2018-08-19T06:15:00.372Z,99.90
2018-08-19T06:17:27.438Z,99.90
2018-08-19T06:19:55.740Z,99.90
2018-08-19T06:22:22.058Z,99.90
2018-08-19T06:24:49.052Z,99.90
2018-08-19T06:27:15.353Z,99.90
2018-08-19T06:29:41.656Z,99.90
2018-08-19T06:32:07.958Z,99.90
2018-08-19T06:34:34.321Z,99.90
2018-08-19T06:37:01.254Z,99.90
2018-08-19T06:39:27.498Z,99.90
2018-08-19T06:41:54.528Z,99.90
2018-08-19T06:44:20.773Z,99.90
2018-08-19T06:46:47.052Z,99.90
2018-08-19T06:49:13.330Z,99.80
2018-08-19T06:51:39.630Z,99.90
2018-08-19T06:54:05.896Z,99.90
2018-08-19T06:56:32.158Z,99.50
2018-08-19T06:58:58.470Z,99.90
2018-08-19T07:01:25.501Z,99.40
2018-08-19T07:03:52.643Z,99.80
2018-08-19T07:06:18.841Z,99.80
2018-08-19T07:08:47.680Z,99.40
2018-08-19T07:11:13.935Z,99.90
2018-08-19T07:13:40.970Z,99.20
2018-08-19T07:16:07.238Z,99.20
2018-08-19T07:18:33.551Z,99.10
2018-08-19T07:21:00.671Z,99.40
2018-08-19T07:23:27.199Z,99.40
2018-08-19T07:25:53.464Z,99.10
2018-08-19T07:28:20.482Z,98.20
2018-08-19T07:30:48.373Z,98.20
2018-08-19T07:33:18.206Z,97.30
2018-08-19T07:35:44.953Z,97.10
2018-08-19T07:38:13.721Z,96.80
2018-08-19T07:40:42.456Z,96.50
2018-08-19T07:43:12.544Z,96.50
2018-08-19T07:45:38.796Z,96.70
2018-08-19T07:48:07.687Z,95.80
2018-08-19T07:50:36.917Z,95.60
2018-08-19T07:53:06.781Z,95.80
2018-08-19T07:55:37.176Z,95.90
2018-08-19T07:58:06.914Z,95.50
2018-08-19T08:00:33.237Z,95.50
2018-08-19T08:02:59.550Z,95.40
2018-08-19T08:05:26.976Z,95.20
2018-08-19T08:07:53.626Z,95.30
2018-08-19T08:10:19.909Z,95.10
2018-08-19T08:12:46.984Z,95.20
2018-08-19T08:15:13.558Z,95.20
2018-08-19T08:17:40.155Z,94.20
2018-08-19T08:20:06.749Z,94.00
2018-08-19T08:22:33.004Z,92.30
2018-08-19T08:25:00.433Z,86.10
2018-08-19T08:27:26.700Z,86.10
2018-08-19T08:29:52.992Z,78.50
2018-08-19T08:32:19.270Z,75.90
2018-08-19T08:34:45.569Z,70.40
2018-08-19T08:37:11.854Z,64.80
2018-08-19T08:39:38.136Z,59.20
2018-08-19T08:42:05.132Z,53.70
2018-08-19T08:44:31.423Z,53.60
2018-08-19T08:46:58.437Z,49.60
2018-08-19T08:49:24.877Z,49.50
2018-08-19T08:51:51.253Z,47.90
2018-08-19T08:54:17.977Z,47.20
2018-08-19T08:56:45.337Z,46.30
2018-08-19T08:59:12.780Z,47.70
2018-08-19T09:01:41.062Z,47.50
2018-08-19T09:04:07.465Z,47.10
2018-08-19T09:06:33.937Z,47.90
2018-08-19T09:09:01.263Z,48.70
2018-08-19T09:11:27.914Z,48.70
2018-08-19T09:14:00.541Z,50.30
2018-08-19T09:16:27.171Z,49.00
2018-08-19T09:18:53.673Z,50.00
2018-08-19T09:21:19.917Z,49.30
2018-08-19T09:23:46.951Z,50.00
2018-08-19T09:26:13.201Z,49.90
2018-08-19T09:28:40.181Z,50.70
2018-08-19T09:31:06.848Z,50.50
2018-08-19T09:33:33.223Z,51.40
2018-08-19T09:35:59.565Z,49.20
2018-08-19T09:38:25.834Z,49.70
2018-08-19T09:40:52.404Z,47.00
2018-08-19T09:43:19.705Z,47.40
2018-08-19T09:45:46.009Z,47.30
2018-08-19T09:48:14.041Z,47.10
2018-08-19T09:50:40.354Z,47.20
2018-08-19T09:53:06.628Z,46.90
2018-08-19T09:55:33.017Z,46.60
2018-08-19T09:57:59.345Z,46.00
2018-08-19T10:00:25.671Z,44.90
2018-08-19T10:02:51.997Z,44.70
2018-08-19T10:05:18.302Z,45.50
2018-08-19T10:07:45.313Z,45.40
2018-08-19T10:10:11.619Z,45.40
2018-08-19T10:12:37.943Z,45.00
2018-08-19T10:15:04.644Z,45.30
2018-08-19T10:17:30.903Z,45.10
2018-08-19T10:19:57.214Z,45.00
2018-08-19T10:22:24.303Z,45.30
2018-08-19T10:24:50.606Z,45.20
2018-08-19T10:27:16.849Z,44.80
2018-08-19T10:29:43.122Z,45.60
2018-08-19T10:32:09.425Z,46.20
2018-08-19T10:34:35.682Z,44.00
2018-08-19T10:37:02.020Z,45.20
2018-08-19T10:39:28.257Z,44.40
2018-08-19T10:41:54.577Z,44.80
2018-08-19T10:44:20.805Z,44.60
2018-08-19T10:46:47.093Z,45.10
2018-08-19T10:49:13.330Z,44.30
2018-08-19T10:51:39.700Z,44.90
2018-08-19T10:54:05.975Z,43.10
2018-08-19T10:56:32.283Z,43.40
2018-08-19T10:58:58.550Z,43.40
2018-08-19T11:01:24.872Z,43.30
2018-08-19T11:03:51.170Z,43.70
2018-08-19T11:06:17.573Z,44.40
2018-08-19T11:08:43.849Z,44.20
2018-08-19T11:11:10.170Z,44.20
2018-08-19T11:13:36.445Z,44.60
2018-08-19T11:16:02.764Z,44.50
2018-08-19T11:18:29.028Z,45.20
2018-08-19T11:20:55.382Z,44.10
2018-08-19T11:23:21.688Z,44.00
2018-08-19T11:25:47.992Z,44.80
2018-08-19T11:28:14.278Z,45.30
2018-08-19T11:30:40.625Z,45.30
2018-08-19T11:33:06.893Z,45.20
2018-08-19T11:35:33.925Z,43.90
2018-08-19T11:38:00.209Z,43.90
2018-08-19T11:40:26.478Z,44.20
2018-08-19T11:42:52.765Z,44.50
2018-08-19T11:45:19.212Z,44.50
2018-08-19T11:47:45.536Z,43.40
2018-08-19T11:50:11.814Z,43.80
2018-08-19T11:52:38.129Z,44.10
2018-08-19T11:55:04.390Z,44.30
2018-08-19T11:57:31.412Z,44.60
2018-08-19T11:59:57.653Z,44.60
2018-08-19T12:02:24.690Z,43.90
2018-08-19T12:04:50.994Z,43.90
2018-08-19T12:07:17.309Z,43.80
2018-08-19T12:09:43.725Z,44.10
2018-08-19T12:12:09.989Z,44.60
2018-08-19T12:14:36.254Z,44.80
2018-08-19T12:17:02.649Z,45.10
2018-08-19T12:19:28.793Z,45.70
2018-08-19T12:21:55.099Z,45.40
2018-08-19T12:24:21.382Z,45.70
2018-08-19T12:26:47.685Z,45.40
2018-08-19T12:29:13.918Z,46.20
2018-08-19T12:31:40.209Z,46.50
2018-08-19T12:34:06.528Z,46.30
2018-08-19T12:36:32.803Z,47.00
2018-08-19T12:38:59.081Z,46.70
2018-08-19T12:41:26.103Z,47.00
2018-08-19T12:43:52.409Z,46.90
2018-08-19T12:46:18.689Z,46.70
2018-08-19T12:48:45.012Z,47.40
2018-08-19T12:51:11.257Z,47.10
2018-08-19T12:53:37.646Z,47.10
2018-08-19T12:56:08.693Z,47.00
2018-08-19T12:58:35.045Z,47.60
2018-08-19T13:01:01.317Z,47.30
2018-08-19T13:03:27.610Z,47.40
2018-08-19T13:05:53.937Z,47.40
2018-08-19T13:08:20.978Z,47.30
2018-08-19T13:10:47.258Z,47.30
2018-08-19T13:13:13.542Z,47.40
2018-08-19T13:15:39.825Z,47.30
2018-08-19T13:18:06.105Z,47.80
2018-08-19T13:20:32.392Z,47.80
2018-08-19T13:22:58.772Z,47.80
2018-08-19T13:25:24.948Z,47.30
2018-08-19T13:27:51.240Z,47.60
2018-08-19T13:30:17.544Z,47.70
2018-08-19T13:32:43.836Z,48.20
2018-08-19T13:35:10.074Z,47.40
2018-08-19T13:37:36.708Z,47.30
2018-08-19T13:40:02.994Z,47.20
2018-08-19T13:42:29.294Z,48.00
2018-08-19T13:44:55.592Z,48.30
2018-08-19T13:47:21.868Z,48.00
2018-08-19T13:49:48.189Z,48.30
2018-08-19T13:52:14.441Z,48.70
2018-08-19T13:54:41.492Z,48.30
2018-08-19T13:57:08.510Z,47.90
2018-08-19T13:59:34.773Z,47.90
2018-08-19T14:02:01.777Z,48.40
2018-08-19T14:04:28.048Z,48.30
2018-08-19T14:06:55.044Z,48.20
2018-08-19T14:09:21.334Z,48.10
2018-08-19T14:11:47.601Z,48.00
2018-08-19T14:14:13.887Z,47.60
2018-08-19T14:16:40.113Z,47.80
2018-08-19T14:19:06.418Z,47.30
2018-08-19T14:21:32.682Z,47.20
2018-08-19T14:23:58.956Z,47.30
2018-08-19T14:26:25.186Z,47.00
2018-08-19T14:28:51.476Z,47.10
2018-08-19T14:31:17.717Z,46.60
2018-08-19T14:33:43.977Z,46.70
2018-08-19T14:36:10.230Z,46.60
2018-08-19T14:38:36.497Z,46.60
2018-08-19T14:41:02.839Z,46.30
2018-08-19T14:43:29.155Z,46.70
2018-08-19T14:45:55.421Z,46.40
2018-08-19T14:48:21.699Z,46.90
2018-08-19T14:50:47.933Z,47.10
2018-08-19T14:53:14.210Z,46.50
2018-08-19T14:55:40.458Z,46.80
2018-08-19T14:58:06.698Z,46.80
2018-08-19T15:00:32.994Z,46.70
2018-08-19T15:02:59.256Z,46.40
2018-08-19T15:05:25.557Z,46.40
2018-08-19T15:07:53.199Z,46.40
2018-08-19T15:10:19.689Z,46.80
2018-08-19T15:12:46.129Z,46.70
2018-08-19T15:15:12.808Z,47.00
2018-08-19T15:17:39.603Z,46.90
2018-08-19T15:20:06.910Z,47.00
2018-08-19T15:22:33.698Z,46.90
2018-08-19T15:25:00.083Z,46.40
2018-08-19T15:27:26.386Z,46.70
2018-08-19T15:29:53.373Z,47.20
2018-08-19T15:32:21.931Z,47.50
2018-08-19T15:34:49.578Z,47.80
2018-08-19T15:37:15.865Z,47.80
2018-08-19T15:39:42.162Z,47.50
2018-08-19T15:42:09.893Z,47.70
2018-08-19T15:44:36.266Z,47.70
2018-08-19T15:47:02.527Z,47.80
2018-08-19T15:49:29.780Z,47.90
2018-08-19T15:51:56.123Z,47.90
2018-08-19T15:54:22.431Z,47.80
2018-08-19T15:56:48.686Z,47.70
2018-08-19T15:59:14.991Z,47.80
2018-08-19T16:01:42.249Z,48.00
2018-08-19T16:04:08.577Z,48.50
2018-08-19T16:06:35.663Z,47.70
2018-08-19T16:09:02.018Z,46.20
2018-08-19T16:11:29.322Z,46.20
2018-08-19T16:13:55.653Z,46.50
2018-08-19T16:16:22.206Z,46.80
2018-08-19T16:18:48.548Z,47.50
2018-08-19T16:21:15.106Z,47.00
2018-08-19T16:23:41.363Z,47.00
2018-08-19T16:26:07.650Z,47.00
2018-08-19T16:28:33.998Z,47.00
2018-08-19T16:31:00.301Z,46.70
2018-08-19T16:33:26.570Z,46.70
2018-08-19T16:35:53.527Z,47.00
2018-08-19T16:38:20.538Z,47.60
2018-08-19T16:40:46.825Z,47.50
2018-08-19T16:43:13.565Z,47.20
2018-08-19T16:45:41.002Z,47.40
2018-08-19T16:48:08.130Z,47.50
2018-08-19T16:50:34.540Z,47.30
2018-08-19T16:53:01.493Z,47.60
2018-08-19T16:55:27.776Z,47.60
2018-08-19T16:57:54.284Z,48.00
2018-08-19T17:00:20.617Z,47.50
2018-08-19T17:02:46.938Z,47.00
2018-08-19T17:05:13.246Z,47.10
2018-08-19T17:07:39.501Z,47.10
2018-08-19T17:10:05.815Z,46.90
2018-08-19T17:12:32.068Z,46.90
2018-08-19T17:14:58.368Z,46.90
2018-08-19T17:17:24.640Z,46.50
2018-08-19T17:19:50.894Z,47.00
2018-08-19T17:22:17.251Z,47.00
2018-08-19T17:24:44.193Z,46.80
2018-08-19T17:27:10.488Z,46.80
2018-08-19T17:29:37.473Z,48.20
2018-08-19T17:32:03.765Z,48.20
2018-08-19T17:34:30.748Z,45.80
2018-08-19T17:36:57.045Z,45.20
2018-08-19T17:39:24.091Z,44.50
2018-08-19T17:41:50.348Z,44.40
2018-08-19T17:44:16.596Z,43.80
2018-08-19T17:46:43.768Z,44.40
2018-08-19T17:49:12.138Z,44.20
2018-08-19T17:51:40.562Z,43.90
2018-08-19T17:54:10.081Z,43.70
2018-08-19T17:56:37.131Z,43.80
2018-08-19T17:59:09.061Z,43.90
2018-08-19T18:01:36.404Z,44.20
2018-08-19T18:04:04.581Z,44.30
2018-08-19T18:06:31.716Z,44.60
2018-08-19T18:09:02.743Z,44.80
2018-08-19T18:11:34.632Z,45.60
2018-08-19T18:14:04.343Z,46.40
2018-08-19T18:16:35.519Z,46.30
2018-08-19T18:19:03.505Z,46.30
2018-08-19T18:21:31.969Z,48.20
2018-08-19T18:24:01.466Z,47.30
2018-08-19T18:26:29.071Z,49.10
2018-08-19T18:28:58.061Z,47.80
2018-08-19T18:31:24.651Z,49.10
2018-08-19T18:33:50.954Z,50.20
2018-08-19T18:36:18.106Z,50.60
2018-08-19T18:38:47.280Z,53.60
2018-08-19T18:41:19.040Z,57.60
2018-08-19T18:43:47.881Z,51.40
2018-08-19T18:46:14.760Z,54.50
2018-08-19T18:48:44.028Z,54.80
2018-08-19T18:51:11.231Z,56.90
2018-08-19T18:53:43.596Z,53.50
2018-08-19T18:56:16.079Z,57.40
2018-08-19T18:58:44.970Z,57.30
2018-08-19T19:01:12.701Z,53.80
2018-08-19T19:03:42.630Z,57.70
2018-08-19T19:06:10.487Z,61.30
2018-08-19T19:08:40.305Z,56.80
2018-08-19T19:11:09.500Z,60.20
2018-08-19T19:13:36.457Z,60.10
2018-08-19T19:16:06.558Z,57.70
2018-08-19T19:18:36.417Z,56.90
2018-08-19T19:21:04.719Z,57.00
2018-08-19T19:23:36.226Z,57.00
2018-08-19T19:26:05.634Z,57.80
2018-08-19T19:28:37.804Z,60.00
2018-08-19T19:31:08.198Z,58.10
2018-08-19T19:33:34.851Z,58.50
2018-08-19T19:36:02.591Z,59.70
2018-08-19T19:38:40.940Z,62.50
2018-08-19T19:41:10.625Z,60.60
2018-08-19T19:43:38.611Z,61.80
2018-08-19T19:46:08.835Z,59.00
2018-08-19T19:48:36.923Z,61.40
2018-08-19T19:51:10.827Z,60.00
2018-08-19T19:53:43.212Z,61.20
2018-08-19T19:56:13.742Z,62.00
2018-08-19T19:58:41.968Z,65.00
2018-08-19T20:01:15.962Z,63.40
2018-08-19T20:03:49.941Z,64.20
2018-08-19T20:06:19.537Z,62.70
2018-08-19T20:08:52.404Z,62.90
2018-08-19T20:11:23.053Z,62.80
2018-08-19T20:13:51.048Z,63.80
2018-08-19T20:16:19.085Z,65.90
2018-08-19T20:18:47.723Z,66.60
2018-08-19T20:21:16.240Z,66.50
2018-08-19T20:23:46.407Z,68.30
2018-08-19T20:26:13.603Z,66.40
2018-08-19T20:28:40.904Z,67.60
2018-08-19T20:31:08.066Z,67.10
2018-08-19T20:33:35.230Z,68.60
2018-08-19T20:36:03.362Z,71.90
2018-08-19T20:38:30.578Z,72.00
2018-08-19T20:40:56.938Z,69.80
2018-08-19T20:43:24.006Z,71.00
2018-08-19T20:45:50.345Z,70.90
2018-08-19T20:48:17.391Z,73.60
2018-08-19T20:50:43.691Z,73.60
2018-08-19T20:53:09.978Z,73.50
2018-08-19T20:55:36.247Z,75.50
2018-08-19T20:58:02.558Z,75.90
2018-08-19T21:00:28.985Z,76.60
2018-08-19T21:02:55.336Z,77.60
2018-08-19T21:05:21.592Z,79.40
2018-08-19T21:07:48.649Z,79.90
2018-08-19T21:10:15.637Z,81.60
2018-08-19T21:12:41.945Z,81.60
2018-08-19T21:15:08.192Z,82.10
2018-08-19T21:17:34.509Z,83.00
2018-08-19T21:20:00.802Z,85.30
2018-08-19T21:22:27.156Z,86.20
2018-08-19T21:24:54.134Z,90.40
2018-08-19T21:27:20.428Z,90.50
2018-08-19T21:29:47.607Z,90.50
2018-08-19T21:32:13.833Z,90.50
2018-08-19T21:34:40.829Z,90.80
2018-08-19T21:37:07.355Z,91.90
2018-08-19T21:39:33.590Z,92.50
2018-08-19T21:41:59.893Z,93.30
2018-08-19T21:44:26.178Z,93.50
2018-08-19T21:46:53.132Z,93.60
2018-08-19T21:49:19.973Z,94.10
2018-08-19T21:51:46.371Z,94.20
2018-08-19T21:54:12.625Z,95.00
2018-08-19T21:56:39.655Z,95.30
2018-08-19T21:59:08.101Z,95.30
2018-08-19T22:01:34.367Z,96.10
2018-08-19T22:04:00.669Z,95.70
2018-08-19T22:06:26.942Z,96.20
2018-08-19T22:08:54.002Z,97.50
2018-08-19T22:11:21.126Z,97.30
2018-08-19T22:13:47.533Z,97.30
2018-08-19T22:16:13.825Z,97.40
2018-08-19T22:18:40.235Z,97.70
2018-08-19T22:21:06.569Z,98.20
2018-08-19T22:23:33.980Z,98.30
2018-08-19T22:26:01.045Z,99.10
2018-08-19T22:28:27.350Z,99.10
2018-08-19T22:30:53.598Z,99.30
2018-08-19T22:33:19.892Z,98.80
2018-08-19T22:35:46.996Z,99.90
2018-08-19T22:38:13.316Z,99.90
2018-08-19T22:40:39.637Z,99.30
2018-08-19T22:43:05.942Z,99.60
2018-08-19T22:45:32.192Z,99.80
2018-08-19T22:47:58.507Z,99.90
2018-08-19T22:50:24.797Z,99.90
2018-08-19T22:52:51.105Z,99.90
2018-08-19T22:55:17.457Z,99.90
2018-08-19T22:57:43.815Z,99.90
2018-08-19T23:00:10.893Z,99.90
2018-08-19T23:02:37.244Z,99.90
2018-08-19T23:05:03.598Z,99.90
2018-08-19T23:07:29.867Z,99.90
2018-08-19T23:09:56.905Z,99.90
2018-08-19T23:12:23.977Z,99.90
2018-08-19T23:15:12.346Z,99.90
2018-08-19T23:17:38.676Z,99.90
2018-08-19T23:20:04.946Z,99.90
2018-08-19T23:22:31.220Z,99.90
2018-08-19T23:24:57.466Z,99.90
2018-08-19T23:27:23.757Z,99.90
2018-08-19T23:29:50.744Z,99.90
2018-08-19T23:32:17.038Z,99.90
2018-08-19T23:37:16.323Z,99.90
2018-08-19T23:39:42.629Z,99.90
2018-08-19T23:42:08.927Z,99.90
2018-08-19T23:44:35.212Z,99.90
2018-08-19T23:47:01.510Z,99.90
2018-08-19T23:49:27.770Z,99.90
2018-08-19T23:51:54.057Z,99.90
2018-08-19T23:54:20.423Z,99.90
2018-08-19T23:56:46.701Z,99.90
2018-08-19T23:59:13.753Z,99.90
